SondeTracker

Meteorological Radiosondes Database

Operations

Sounding was ended - last measurement: 2021-07-12 13:52:40z

MAP
About Radiosonde

Number: S2340822

Launch Site: Florianopolis (BR)

Type: RS41

AUX: NO

Frequency: 405.302 MHz

Max Speed: 146 km/h at 15344 m

Average Speed: 73.49 km/h

Max Altitude: 22580 m

Average Ascent Speed: 6.71 m/s

Average Descent Speed: 4.35 m/s

Status: LOST

Status Changes
Launch Site Type AUX Frequency Status Finder Landing Point Description Changes made by
MHz LOST 0, 0 AUTO STATUS: Probably lost in the water [BOT]AUTO-STATUS - 2021-07-12 14:52:40z
MHz LOST 0, 0 AUTO STATUS: Probably lost in the water [BOT]AUTO-STATUS - 2021-07-12 14:12:02z
APRS Statistics

Received Frames: 321

First Frame [UTC]: 2021-07-12 11:35:00z

Last Frame [UTC]: 2021-07-12 13:52:40z

Receivers: PP5UF-6

Flight Time: 02:17:40 h

Distance From First Measurement: 125.18 km

Nearest City: [0.00 km]

Nearest Hunter: [0.00 km]

Ground Altitude: -123 m

Distance from QTH: 0.00 km

APRS Data
Receiver Number Date/Time [UTC] φ λ Course [°] Speed [km/h] Altitude [m] Description
PP5UF-6S23408222021-07-12 13:52:40-27.1934-47.401116920221Clb=-2.6m/s t=18.8C 405.301 MHz Type=RS41-SGP Vaisala http://sondehub.org/S2340822 https://radiosondy.info/sonde.php?sondenumber
PP5UF-6S23408222021-07-12 13:52:20-27.1931-47.401119911240Clb=-2.7m/s t=18.7C 405.301 MHz Type=RS41-SGP Vaisala http://sondehub.org/S2340822 https://radiosondy.info/sonde.php?sondenumber
PP5UF-6S23408222021-07-12 13:52:00-27.1922-47.400916815290Clb=-2.6m/s t=18.4C 405.301 MHz Type=RS41-SGP Vaisala http://sondehub.org/S2340822 https://radiosondy.info/sonde.php?sondenumber
PP5UF-6S23408222021-07-12 13:51:40-27.1913-47.400717422336Clb=-2.4m/s t=18.0C 405.301 MHz Type=RS41-SGP Vaisala http://sondehub.org/S2340822 https://radiosondy.info/sonde.php?sondenumber
PP5UF-6S23408222021-07-12 13:51:00-27.1894-47.400217924436Clb=-2.5m/s t=17.2C 405.301 MHz Type=RS41-SGP Vaisala http://sondehub.org/S2340822 https://radiosondy.info/sonde.php?sondenumber
PP5UF-6S23408222021-07-12 13:50:40-27.1885-47.399920126484Clb=-2.4m/s t=-273.0C 405.301 MHz Type=RS41-SGP Vaisala http://sondehub.org/S2340822 https://radiosondy.info/sonde.php?sondenumb
PP5UF-6S23408222021-07-12 13:50:20-27.1875-47.399621026535Clb=-2.6m/s t=-273.0C 405.301 MHz Type=RS41-SGP Vaisala http://sondehub.org/S2340822 https://radiosondy.info/sonde.php?sondenumb
PP5UF-6S23408222021-07-12 13:50:00-27.1856-47.398818522616Clb=-2.3m/s t=-273.0C 405.301 MHz Type=RS41-SGP Vaisala http://sondehub.org/S2340822 https://radiosondy.info/sonde.php?sondenumb
PP5UF-6S23408222021-07-12 13:49:40-27.1852-47.398621826637Clb=-2.6m/s t=-273.0C 405.301 MHz Type=RS41-SGP Vaisala http://sondehub.org/S2340822 https://radiosondy.info/sonde.php?sondenumb
PP5UF-6S23408222021-07-12 13:49:20-27.184-47.39822126684Clb=-2.6m/s t=-273.0C 405.301 MHz Type=RS41-SGP Vaisala http://sondehub.org/S2340822 https://radiosondy.info/sonde.php?sondenumb
PP5UF-6S23408222021-07-12 13:49:00-27.1819-47.396619624762Clb=-2.5m/s t=-273.0C 405.301 MHz Type=RS41-SGP Vaisala http://sondehub.org/S2340822 https://radiosondy.info/sonde.php?sondenumb
PP5UF-6S23408222021-07-12 13:48:40-27.1817-47.396521220775Clb=-2.6m/s t=-273.0C 405.301 MHz Type=RS41-SGP Vaisala http://sondehub.org/S2340822 https://radiosondy.info/sonde.php?sondenumb
PP5UF-6S23408222021-07-12 13:48:20-27.1805-47.395620920823Clb=-2.3m/s t=-273.0C 405.302 MHz Type=RS41 Vaisala http://sondehub.org/S2340822 https://radiosondy.info/sonde.php?sondenumber=S
PP5UF-6S23408222021-07-12 13:18:20-27.1865-47.424153265933Clb=-3.7m/s t=-9.4C 405.301 MHz Type=RS41-SGP Vaisala http://sondehub.org/S2340822 https://radiosondy.info/sonde.php?sondenumber
PP5UF-6S23408222021-07-12 13:18:00-27.1876-47.425656316007Clb=-3.4m/s t=-9.9C 405.301 MHz Type=RS41-SGP Vaisala http://sondehub.org/S2340822 https://radiosondy.info/sonde.php?sondenumber
PP5UF-6S23408222021-07-12 13:17:00-27.1915-47.429553356199Clb=-3.0m/s t=-11.3C 405.301 MHz Type=RS41-SGP Vaisala http://sondehub.org/S2340822 https://radiosondy.info/sonde.php?sondenumbe
PP5UF-6S23408222021-07-12 13:16:40-27.1932-47.431140446279Clb=-3.9m/s t=-12.0C 405.301 MHz Type=RS41-SGP Vaisala http://sondehub.org/S2340822 https://radiosondy.info/sonde.php?sondenumbe
PP5UF-6S23408222021-07-12 13:16:20-27.1939-47.431648286308Clb=-3.4m/s t=-12.3C 405.301 MHz Type=RS41-SGP Vaisala http://sondehub.org/S2340822 https://radiosondy.info/sonde.php?sondenumbe
PP5UF-6S23408222021-07-12 13:16:00-27.1957-47.433654416402Clb=-3.6m/s t=-13.2C 405.301 MHz Type=RS41-SGP Vaisala http://sondehub.org/S2340822 https://radiosondy.info/sonde.php?sondenumbe
PP5UF-6S23408222021-07-12 13:15:40-27.1972-47.435137336463Clb=-3.7m/s t=-13.7C 405.301 MHz Type=RS41-SGP Vaisala http://sondehub.org/S2340822 https://radiosondy.info/sonde.php?sondenumbe
PP5UF-6S23408222021-07-12 13:15:20-27.1986-47.436838506529Clb=-3.5m/s t=-14.4C 405.301 MHz Type=RS41-SGP Vaisala http://sondehub.org/S2340822 https://radiosondy.info/sonde.php?sondenumbe
PP5UF-6S23408222021-07-12 13:15:00-27.2-47.437842306582Clb=-3.7m/s t=-14.8C 405.301 MHz Type=RS41-SGP Vaisala http://sondehub.org/S2340822 https://radiosondy.info/sonde.php?sondenumbe
PP5UF-6S23408222021-07-12 13:14:40-27.2016-47.439629446653Clb=-3.3m/s t=-15.4C 405.301 MHz Type=RS41-SGP Vaisala http://sondehub.org/S2340822 https://radiosondy.info/sonde.php?sondenumbe
PP5UF-6S23408222021-07-12 13:14:20-27.2031-47.441350526722Clb=-4.3m/s t=-16.1C 405.301 MHz Type=RS41-SGP Vaisala http://sondehub.org/S2340822 https://radiosondy.info/sonde.php?sondenumbe
PP5UF-6S23408222021-07-12 13:14:00-27.2047-47.443450486785Clb=-3.5m/s t=-16.7C 405.301 MHz Type=RS41-SGP Vaisala http://sondehub.org/S2340822 https://radiosondy.info/sonde.php?sondenumbe
PP5UF-6S23408222021-07-12 13:13:40-27.2062-47.445554526854Clb=-3.7m/s t=-17.3C 405.301 MHz Type=RS41-SGP Vaisala http://sondehub.org/S2340822 https://radiosondy.info/sonde.php?sondenumbe
PP5UF-6S23408222021-07-12 13:13:20-27.2077-47.447652486922Clb=-3.6m/s t=-17.9C 405.301 MHz Type=RS41-SGP Vaisala http://sondehub.org/S2340822 https://radiosondy.info/sonde.php?sondenumbe
PP5UF-6S23408222021-07-12 13:13:00-27.2096-47.450144656992Clb=-3.4m/s t=-18.5C 405.301 MHz Type=RS41-SGP Vaisala http://sondehub.org/S2340822 https://radiosondy.info/sonde.php?sondenumbe
PP5UF-6S23408222021-07-12 13:12:40-27.2116-47.45255547065Clb=-3.8m/s t=-19.1C 405.301 MHz Type=RS41-SGP Vaisala http://sondehub.org/S2340822 https://radiosondy.info/sonde.php?sondenumbe
PP5UF-6S23408222021-07-12 13:12:20-27.2138-47.454437467137Clb=-3.4m/s t=-19.8C 405.301 MHz Type=RS41-SGP Vaisala http://sondehub.org/S2340822 https://radiosondy.info/sonde.php?sondenumbe
PP5UF-6S23408222021-07-12 13:12:00-27.2158-47.456842677209Clb=-3.4m/s t=-20.4C 405.301 MHz Type=RS41-SGP Vaisala http://sondehub.org/S2340822 https://radiosondy.info/sonde.php?sondenumbe
PP5UF-6S23408222021-07-12 13:11:40-27.2182-47.459549677281Clb=-3.5m/s t=-21.1C 405.301 MHz Type=RS41-SGP Vaisala http://sondehub.org/S2340822 https://radiosondy.info/sonde.php?sondenumbe
PP5UF-6S23408222021-07-12 13:11:20-27.2201-47.462355567352Clb=-3.6m/s t=-21.9C 405.301 MHz Type=RS41-SGP Vaisala http://sondehub.org/S2340822 https://radiosondy.info/sonde.php?sondenumbe
PP5UF-6S23408222021-07-12 13:11:00-27.2219-47.464435577424Clb=-3.5m/s t=-22.5C 405.301 MHz Type=RS41-SGP Vaisala http://sondehub.org/S2340822 https://radiosondy.info/sonde.php?sondenumbe
PP5UF-6S23408222021-07-12 13:10:40-27.2244-47.466951677496Clb=-3.6m/s t=-23.1C 405.301 MHz Type=RS41-SGP Vaisala http://sondehub.org/S2340822 https://radiosondy.info/sonde.php?sondenumbe
PP5UF-6S23408222021-07-12 13:10:20-27.2262-47.469855567568Clb=-3.8m/s t=-23.8C 405.301 MHz Type=RS41-SGP Vaisala http://sondehub.org/S2340822 https://radiosondy.info/sonde.php?sondenumbe
PP5UF-6S23408222021-07-12 13:10:00-27.2283-47.47239677641Clb=-3.7m/s t=-24.4C 405.301 MHz Type=RS41-SGP Vaisala http://sondehub.org/S2340822 https://radiosondy.info/sonde.php?sondenumbe
PP5UF-6S23408222021-07-12 13:09:40-27.2305-47.47555577715Clb=-3.7m/s t=-25.2C 405.301 MHz Type=RS41-SGP Vaisala http://sondehub.org/S2340822 https://radiosondy.info/sonde.php?sondenumbe
PP5UF-6S23408222021-07-12 13:09:20-27.2325-47.477238637790Clb=-3.6m/s t=-25.8C 405.301 MHz Type=RS41-SGP Vaisala http://sondehub.org/S2340822 https://radiosondy.info/sonde.php?sondenumbe
PP5UF-6S23408222021-07-12 13:09:00-27.2349-47.480155677864Clb=-4.0m/s t=-26.3C 405.301 MHz Type=RS41-SGP Vaisala http://sondehub.org/S2340822 https://radiosondy.info/sonde.php?sondenumbe
PP5UF-6S23408222021-07-12 13:08:40-27.2366-47.482742567939Clb=-3.6m/s t=-27.1C 405.301 MHz Type=RS41-SGP Vaisala http://sondehub.org/S2340822 https://radiosondy.info/sonde.php?sondenumbe
PP5UF-6S23408222021-07-12 13:08:20-27.2391-47.485448748015Clb=-3.5m/s t=-27.6C 405.301 MHz Type=RS41-SGP Vaisala http://sondehub.org/S2340822 https://radiosondy.info/sonde.php?sondenumbe
PP5UF-6S23408222021-07-12 13:08:00-27.2411-47.488758618090Clb=-3.7m/s t=-28.5C 405.301 MHz Type=RS41-SGP Vaisala http://sondehub.org/S2340822 https://radiosondy.info/sonde.php?sondenumbe
PP5UF-6S23408222021-07-12 13:07:40-27.2431-47.491242708165Clb=-3.7m/s t=-29.0C 405.301 MHz Type=RS41-SGP Vaisala http://sondehub.org/S2340822 https://radiosondy.info/sonde.php?sondenumbe
PP5UF-6S23408222021-07-12 13:07:20-27.2453-47.494559678239Clb=-3.6m/s t=-29.7C 405.301 MHz Type=RS41-SGP Vaisala http://sondehub.org/S2340822 https://radiosondy.info/sonde.php?sondenumbe
PP5UF-6S23408222021-07-12 13:07:00-27.2472-47.497141678315Clb=-3.8m/s t=-30.3C 405.301 MHz Type=RS41-SGP Vaisala http://sondehub.org/S2340822 https://radiosondy.info/sonde.php?sondenumbe
PP5UF-6S23408222021-07-12 13:06:40-27.2493-47.552548389Clb=-3.9m/s t=-31.0C 405.301 MHz Type=RS41-SGP Vaisala http://sondehub.org/S2340822 https://radiosondy.info/sonde.php?sondenumbe
PP5UF-6S23408222021-07-12 13:06:20-27.2514-47.502136658464Clb=-3.7m/s t=-31.4C 405.301 MHz Type=RS41-SGP Vaisala http://sondehub.org/S2340822 https://radiosondy.info/sonde.php?sondenumbe
PP5UF-6S23408222021-07-12 13:06:00-27.254-47.504953678539Clb=-3.9m/s t=-32.0C 405.301 MHz Type=RS41-SGP Vaisala http://sondehub.org/S2340822 https://radiosondy.info/sonde.php?sondenumbe
PP5UF-6S23408222021-07-12 13:05:40-27.2566-47.507538748619Clb=-3.9m/s t=-32.6C 405.301 MHz Type=RS41-SGP Vaisala http://sondehub.org/S2340822 https://radiosondy.info/sonde.php?sondenumbe
PP5UF-6S23408222021-07-12 13:05:20-27.2592-47.509739598690Clb=-3.9m/s t=-33.3C 405.301 MHz Type=RS41-SGP Vaisala http://sondehub.org/S2340822 https://radiosondy.info/sonde.php?sondenumbe
PP5UF-6S23408222021-07-12 13:05:00-27.2614-47.512248748765Clb=-3.8m/s t=-33.9C 405.301 MHz Type=RS41-SGP Vaisala http://sondehub.org/S2340822 https://radiosondy.info/sonde.php?sondenumbe
PP5UF-6S23408222021-07-12 13:04:40-27.2643-47.51543788841Clb=-3.9m/s t=-34.5C 405.301 MHz Type=RS41-SGP Vaisala http://sondehub.org/S2340822 https://radiosondy.info/sonde.php?sondenumbe
PP5UF-6S23408222021-07-12 13:04:20-27.2667-47.518247788918Clb=-3.9m/s t=-35.2C 405.301 MHz Type=RS41-SGP Vaisala http://sondehub.org/S2340822 https://radiosondy.info/sonde.php?sondenumbe
PP5UF-6S23408222021-07-12 13:04:00-27.2692-47.521552748995Clb=-4.2m/s t=-35.8C 405.301 MHz Type=RS41-SGP Vaisala http://sondehub.org/S2340822 https://radiosondy.info/sonde.php?sondenumbe
PP5UF-6S23408222021-07-12 13:03:40-27.2712-47.524445599072Clb=-4.1m/s t=-36.6C 405.301 MHz Type=RS41-SGP Vaisala http://sondehub.org/S2340822 https://radiosondy.info/sonde.php?sondenumbe
PP5UF-6S23408222021-07-12 13:03:20-27.2737-47.526740749149Clb=-3.9m/s t=-37.1C 405.301 MHz Type=RS41-SGP Vaisala http://sondehub.org/S2340822 https://radiosondy.info/sonde.php?sondenumbe
PP5UF-6S23408222021-07-12 13:03:00-27.2763-47.5356729225Clb=-3.9m/s t=-37.8C 405.301 MHz Type=RS41-SGP Vaisala http://sondehub.org/S2340822 https://radiosondy.info/sonde.php?sondenumbe
PP5UF-6S23408222021-07-12 13:02:40-27.2784-47.532740659302Clb=-3.9m/s t=-38.4C 405.301 MHz Type=RS41-SGP Vaisala http://sondehub.org/S2340822 https://radiosondy.info/sonde.php?sondenumbe
PP5UF-6S23408222021-07-12 13:02:20-27.2812-47.535445839381Clb=-4.1m/s t=-39.0C 405.301 MHz Type=RS41-SGP Vaisala http://sondehub.org/S2340822 https://radiosondy.info/sonde.php?sondenumbe
PP5UF-6S23408222021-07-12 13:02:00-27.2836-47.538644619460Clb=-4.3m/s t=-39.7C 405.301 MHz Type=RS41-SGP Vaisala http://sondehub.org/S2340822 https://radiosondy.info/sonde.php?sondenumbe
PP5UF-6S23408222021-07-12 13:01:40-27.2867-47.541642859543Clb=-4.1m/s t=-40.1C 405.301 MHz Type=RS41-SGP Vaisala http://sondehub.org/S2340822 https://radiosondy.info/sonde.php?sondenumbe
PP5UF-6S23408222021-07-12 13:01:20-27.2897-47.544746899619Clb=-4.1m/s t=-40.8C 405.301 MHz Type=RS41-SGP Vaisala http://sondehub.org/S2340822 https://radiosondy.info/sonde.php?sondenumbe
PP5UF-6S23408222021-07-12 13:01:00-27.2923-47.548350699700Clb=-4.2m/s t=-41.6C 405.301 MHz Type=RS41-SGP Vaisala http://sondehub.org/S2340822 https://radiosondy.info/sonde.php?sondenumbe
PP5UF-6S23408222021-07-12 13:00:40-27.2948-47.55137749781Clb=-4.5m/s t=-42.3C 405.301 MHz Type=RS41-SGP Vaisala http://sondehub.org/S2340822 https://radiosondy.info/sonde.php?sondenumbe
PP5UF-6S23408222021-07-12 13:00:20-27.2979-47.554453859865Clb=-4.6m/s t=-43.0C 405.301 MHz Type=RS41-SGP Vaisala http://sondehub.org/S2340822 https://radiosondy.info/sonde.php?sondenumbe
PP5UF-6S23408222021-07-12 13:00:00-27.3006-47.557540899948Clb=-4.3m/s t=-43.7C 405.301 MHz Type=RS41-SGP Vaisala http://sondehub.org/S2340822 https://radiosondy.info/sonde.php?sondenumbe
PP5UF-6S23408222021-07-12 12:59:40-27.3035-47.5614548710032Clb=-4.1m/s t=-44.5C 405.301 MHz Type=RS41-SGP Vaisala http://sondehub.org/S2340822 https://radiosondy.info/sonde.php?sondenumbe
PP5UF-6S23408222021-07-12 12:59:20-27.306-47.5647398510118Clb=-4.4m/s t=-45.2C 405.301 MHz Type=RS41-SGP Vaisala http://sondehub.org/S2340822 https://radiosondy.info/sonde.php?sondenumbe
PP5UF-6S23408222021-07-12 12:59:00-27.309-47.5684537810202Clb=-4.3m/s t=-46.2C 405.301 MHz Type=RS41-SGP Vaisala http://sondehub.org/S2340822 https://radiosondy.info/sonde.php?sondenumbe
PP5UF-6S23408222021-07-12 12:58:40-27.3114-47.5721477210288Clb=-4.3m/s t=-46.8C 405.301 MHz Type=RS41-SGP Vaisala http://sondehub.org/S2340822 https://radiosondy.info/sonde.php?sondenumbe
PP5UF-6S23408222021-07-12 12:58:20-27.3145-47.5758579310374Clb=-4.7m/s t=-47.4C 405.301 MHz Type=RS41-SGP Vaisala http://sondehub.org/S2340822 https://radiosondy.info/sonde.php?sondenumbe
PP5UF-6S23408222021-07-12 12:58:00-27.3173-47.5794459810461Clb=-4.6m/s t=-48.1C 405.301 MHz Type=RS41-SGP Vaisala http://sondehub.org/S2340822 https://radiosondy.info/sonde.php?sondenumbe
PP5UF-6S23408222021-07-12 12:57:40-27.3202-47.5837538010548Clb=-4.8m/s t=-48.9C 405.301 MHz Type=RS41-SGP Vaisala http://sondehub.org/S2340822 https://radiosondy.info/sonde.php?sondenumbe
PP5UF-6S23408222021-07-12 12:57:20-27.3232-47.5877599610635Clb=-4.4m/s t=-49.5C 405.301 MHz Type=RS41-SGP Vaisala http://sondehub.org/S2340822 https://radiosondy.info/sonde.php?sondenumbe
PP5UF-6S23408222021-07-12 12:57:00-27.3261-47.59165010410724Clb=-4.5m/s t=-50.3C 405.301 MHz Type=RS41-SGP Vaisala http://sondehub.org/S2340822 https://radiosondy.info/sonde.php?sondenumbe
PP5UF-6S23408222021-07-12 12:56:40-27.3289-47.5954399110812Clb=-4.2m/s t=-50.9C 405.301 MHz Type=RS41-SGP Vaisala http://sondehub.org/S2340822 https://radiosondy.info/sonde.php?sondenumbe
PP5UF-6S23408222021-07-12 12:56:20-27.3323-47.59975510210901Clb=-4.6m/s t=-51.6C 405.301 MHz Type=RS41-SGP Vaisala http://sondehub.org/S2340822 https://radiosondy.info/sonde.php?sondenumbe
PP5UF-6S23408222021-07-12 12:56:00-27.3352-47.60374610410988Clb=-4.4m/s t=-52.0C 405.301 MHz Type=RS41-SGP Vaisala http://sondehub.org/S2340822 https://radiosondy.info/sonde.php?sondenumbe
PP5UF-6S23408222021-07-12 12:55:40-27.3379-47.6079468011075Clb=-4.8m/s t=-52.6C 405.301 MHz Type=RS41-SGP Vaisala http://sondehub.org/S2340822 https://radiosondy.info/sonde.php?sondenumbe
PP5UF-6S23408222021-07-12 12:55:20-27.3413-47.61175110611165Clb=-4.6m/s t=-53.1C 405.301 MHz Type=RS41-SGP Vaisala http://sondehub.org/S2340822 https://radiosondy.info/sonde.php?sondenumbe
PP5UF-6S23408222021-07-12 12:55:00-27.3443-47.6154399611252Clb=-4.6m/s t=-53.7C 405.301 MHz Type=RS41-SGP Vaisala http://sondehub.org/S2340822 https://radiosondy.info/sonde.php?sondenumbe
PP5UF-6S23408222021-07-12 12:54:40-27.3479-47.6196528911342Clb=-4.5m/s t=-54.5C 405.301 MHz Type=RS41-SGP Vaisala http://sondehub.org/S2340822 https://radiosondy.info/sonde.php?sondenumbe
PP5UF-6S23408222021-07-12 12:54:20-27.3514-47.62344511311432Clb=-4.8m/s t=-54.9C 405.301 MHz Type=RS41-SGP Vaisala http://sondehub.org/S2340822 https://radiosondy.info/sonde.php?sondenumbe
PP5UF-6S23408222021-07-12 12:54:00-27.3554-47.62835012011523Clb=-4.6m/s t=-55.5C 405.301 MHz Type=RS41-SGP Vaisala http://sondehub.org/S2340822 https://radiosondy.info/sonde.php?sondenumbe
PP5UF-6S23408222021-07-12 12:53:40-27.3589-47.63344610411614Clb=-4.6m/s t=-56.4C 405.301 MHz Type=RS41-SGP Vaisala http://sondehub.org/S2340822 https://radiosondy.info/sonde.php?sondenumbe
PP5UF-6S23408222021-07-12 12:53:20-27.3631-47.63825013011706Clb=-4.4m/s t=-57.0C 405.301 MHz Type=RS41-SGP Vaisala http://sondehub.org/S2340822 https://radiosondy.info/sonde.php?sondenumbe
PP5UF-6S23408222021-07-12 12:53:00-27.3666-47.64375310711798Clb=-4.5m/s t=-57.9C 405.301 MHz Type=RS41-SGP Vaisala http://sondehub.org/S2340822 https://radiosondy.info/sonde.php?sondenumbe
PP5UF-6S23408222021-07-12 12:52:40-27.3705-47.64854913111890Clb=-4.8m/s t=-58.7C 405.301 MHz Type=RS41-SGP Vaisala http://sondehub.org/S2340822 https://radiosondy.info/sonde.php?sondenumbe
PP5UF-6S23408222021-07-12 12:52:20-27.3741-47.65435611111983Clb=-4.6m/s t=-59.5C 405.301 MHz Type=RS41-SGP Vaisala http://sondehub.org/S2340822 https://radiosondy.info/sonde.php?sondenumbe
PP5UF-6S23408222021-07-12 12:52:00-27.3779-47.65924913312075Clb=-4.6m/s t=-60.1C 405.301 MHz Type=RS41-SGP Vaisala http://sondehub.org/S2340822 https://radiosondy.info/sonde.php?sondenumbe
PP5UF-6S23408222021-07-12 12:51:40-27.3814-47.66485410712166Clb=-4.3m/s t=-60.8C 405.301 MHz Type=RS41-SGP Vaisala http://sondehub.org/S2340822 https://radiosondy.info/sonde.php?sondenumbe
PP5UF-6S23408222021-07-12 12:51:20-27.3855-47.66984813312260Clb=-4.6m/s t=-61.3C 405.301 MHz Type=RS41-SGP Vaisala http://sondehub.org/S2340822 https://radiosondy.info/sonde.php?sondenumbe
PP5UF-6S23408222021-07-12 12:51:00-27.3894-47.67575611912357Clb=-4.4m/s t=-61.6C 405.301 MHz Type=RS41-SGP Vaisala http://sondehub.org/S2340822 https://radiosondy.info/sonde.php?sondenumbe
PP5UF-6S23408222021-07-12 12:50:40-27.3926-47.68155813312455Clb=-4.6m/s t=-61.5C 405.301 MHz Type=RS41-SGP Vaisala http://sondehub.org/S2340822 https://radiosondy.info/sonde.php?sondenumbe
PP5UF-6S23408222021-07-12 12:50:20-27.3954-47.68766010712551Clb=-4.5m/s t=-59.8C 405.301 MHz Type=RS41-SGP Vaisala http://sondehub.org/S2340822 https://radiosondy.info/sonde.php?sondenumbe
PP5UF-6S23408222021-07-12 12:50:00-27.3988-47.6935713312655Clb=-4.8m/s t=-59.1C 405.301 MHz Type=RS41-SGP Vaisala http://sondehub.org/S2340822 https://radiosondy.info/sonde.php?sondenumbe
PP5UF-6S23408222021-07-12 12:49:40-27.4015-47.69865610412752Clb=-4.9m/s t=-58.8C 405.301 MHz Type=RS41-SGP Vaisala http://sondehub.org/S2340822 https://radiosondy.info/sonde.php?sondenumbe
PP5UF-6S23408222021-07-12 12:49:20-27.405-47.7045912812859Clb=-4.6m/s t=-58.4C 405.301 MHz Type=RS41-SGP Vaisala http://sondehub.org/S2340822 https://radiosondy.info/sonde.php?sondenumbe
PP5UF-6S23408222021-07-12 12:49:00-27.4079-47.716210612964Clb=-5.0m/s t=-58.8C 405.301 MHz Type=RS41-SGP Vaisala http://sondehub.org/S2340822 https://radiosondy.info/sonde.php?sondenumbe
PP5UF-6S23408222021-07-12 12:48:40-27.4108-47.71485411513065Clb=-5.6m/s t=-58.7C 405.301 MHz Type=RS41-SGP Vaisala http://sondehub.org/S2340822 https://radiosondy.info/sonde.php?sondenumbe
PP5UF-6S23408222021-07-12 12:48:20-27.4136-47.72077010713171Clb=-5.5m/s t=-58.5C 405.301 MHz Type=RS41-SGP Vaisala http://sondehub.org/S2340822 https://radiosondy.info/sonde.php?sondenumbe
PP5UF-6S23408222021-07-12 12:48:06-27.4162-47.72626012613277Clb=-5.5m/s t=-58.0C 405.301 MHz Type=RS41-SGP Vaisala http://sondehub.org/S2340822 https://radiosondy.info/sonde.php?sondenumbe
PP5UF-6S23408222021-07-12 12:47:40-27.4187-47.73287212413374Clb=-5.6m/s t=-58.4C 405.301 MHz Type=RS41-SGP Vaisala http://sondehub.org/S2340822 https://radiosondy.info/sonde.php?sondenumbe
PP5UF-6S23408222021-07-12 12:47:20-27.4207-47.73856011313477Clb=-5.3m/s t=-58.7C 405.301 MHz Type=RS41-SGP Vaisala http://sondehub.org/S2340822 https://radiosondy.info/sonde.php?sondenumbe
PP5UF-6S23408222021-07-12 12:47:00-27.4237-47.7457012813577Clb=-4.8m/s t=-58.9C 405.301 MHz Type=RS41-SGP Vaisala http://sondehub.org/S2340822 https://radiosondy.info/sonde.php?sondenumbe
PP5UF-6S23408222021-07-12 12:46:40-27.4259-47.75085611113682Clb=-5.8m/s t=-59.1C 405.301 MHz Type=RS41-SGP Vaisala http://sondehub.org/S2340822 https://radiosondy.info/sonde.php?sondenumbe
PP5UF-6S23408222021-07-12 12:46:20-27.4286-47.75727112813781Clb=-5.6m/s t=-58.9C 405.301 MHz Type=RS41-SGP Vaisala http://sondehub.org/S2340822 https://radiosondy.info/sonde.php?sondenumbe
PP5UF-6S23408222021-07-12 12:46:00-27.4303-47.76326211313890Clb=-5.8m/s t=-58.7C 405.301 MHz Type=RS41-SGP Vaisala http://sondehub.org/S2340822 https://radiosondy.info/sonde.php?sondenumbe
PP5UF-6S23408222021-07-12 12:45:40-27.4321-47.77028312013999Clb=-6.1m/s t=-59.2C 405.301 MHz Type=RS41-SGP Vaisala http://sondehub.org/S2340822 https://radiosondy.info/sonde.php?sondenumbe
PP5UF-6S23408222021-07-12 12:45:20-27.4339-47.77677114314102Clb=-6.1m/s t=-59.7C 405.301 MHz Type=RS41-SGP Vaisala http://sondehub.org/S2340822 https://radiosondy.info/sonde.php?sondenumbe
PP5UF-6S23408222021-07-12 12:45:00-27.4354-47.78416912214213Clb=-6.3m/s t=-60.2C 405.301 MHz Type=RS41-SGP Vaisala http://sondehub.org/S2340822 https://radiosondy.info/sonde.php?sondenumbe
PP5UF-6S23408222021-07-12 12:44:40-27.4376-47.79157412214320Clb=-5.9m/s t=-60.8C 405.301 MHz Type=RS41-SGP Vaisala http://sondehub.org/S2340822 https://radiosondy.info/sonde.php?sondenumbe
PP5UF-6S23408222021-07-12 12:44:20-27.4402-47.79857314414429Clb=-6.7m/s t=-61.1C 405.301 MHz Type=RS41-SGP Vaisala http://sondehub.org/S2340822 https://radiosondy.info/sonde.php?sondenumbe
PP5UF-6S23408222021-07-12 12:44:00-27.4424-47.8056113914544Clb=-5.6m/s t=-61.7C 405.301 MHz Type=RS41-SGP Vaisala http://sondehub.org/S2340822 https://radiosondy.info/sonde.php?sondenumbe
PP5UF-6S23408222021-07-12 12:43:40-27.4445-47.81166410414656Clb=-5.7m/s t=-61.8C 405.301 MHz Type=RS41-SGP Vaisala http://sondehub.org/S2340822 https://radiosondy.info/sonde.php?sondenumbe
PP5UF-6S23408222021-07-12 12:43:20-27.4468-47.81827811914767Clb=-5.5m/s t=-62.5C 405.301 MHz Type=RS41-SGP Vaisala http://sondehub.org/S2340822 https://radiosondy.info/sonde.php?sondenumbe
PP5UF-6S23408222021-07-12 12:43:00-27.4485-47.82437213314883Clb=-6.2m/s t=-62.6C 405.301 MHz Type=RS41-SGP Vaisala http://sondehub.org/S2340822 https://radiosondy.info/sonde.php?sondenumbe
PP5UF-6S23408222021-07-12 12:42:40-27.4498-47.83066612214998Clb=-5.8m/s t=-62.9C 405.301 MHz Type=RS41-SGP Vaisala http://sondehub.org/S2340822 https://radiosondy.info/sonde.php?sondenumbe
PP5UF-6S23408222021-07-12 12:42:20-27.4514-47.83746810615112Clb=-5.9m/s t=-63.9C 405.301 MHz Type=RS41-SGP Vaisala http://sondehub.org/S2340822 https://radiosondy.info/sonde.php?sondenumbe
PP5UF-6S23408222021-07-12 12:42:00-27.4532-47.84457911915226Clb=-5.4m/s t=-65.2C 405.301 MHz Type=RS41-SGP Vaisala http://sondehub.org/S2340822 https://radiosondy.info/sonde.php?sondenumbe
PP5UF-6S23408222021-07-12 12:41:40-27.4553-47.85087014615344Clb=-5.8m/s t=-65.5C 405.301 MHz Type=RS41-SGP Vaisala http://sondehub.org/S2340822 https://radiosondy.info/sonde.php?sondenumbe
PP5UF-6S23408222021-07-12 12:41:20-27.4572-47.85716012815463Clb=-5.8m/s t=-66.4C 405.301 MHz Type=RS41-SGP Vaisala http://sondehub.org/S2340822 https://radiosondy.info/sonde.php?sondenumbe
PP5UF-6S23408222021-07-12 12:41:00-27.4593-47.86366010415581Clb=-6.2m/s t=-67.4C 405.301 MHz Type=RS41-SGP Vaisala http://sondehub.org/S2340822 https://radiosondy.info/sonde.php?sondenumbe
PP5UF-6S23408222021-07-12 12:40:40-27.4619-47.86986110215702Clb=-6.0m/s t=-68.2C 405.301 MHz Type=RS41-SGP Vaisala http://sondehub.org/S2340822 https://radiosondy.info/sonde.php?sondenumbe
PP5UF-6S23408222021-07-12 12:40:20-27.4647-47.87567010415824Clb=-6.2m/s t=-68.5C 405.301 MHz Type=RS41-SGP Vaisala http://sondehub.org/S2340822 https://radiosondy.info/sonde.php?sondenumbe
PP5UF-6S23408222021-07-12 12:39:40-27.4686-47.88536910916078Clb=-6.1m/s t=-69.7C 405.301 MHz Type=RS41-SGP Vaisala http://sondehub.org/S2340822 https://radiosondy.info/sonde.php?sondenumbe
PP5UF-6S23408222021-07-12 12:39:20-27.4693-47.8903657816209Clb=-5.9m/s t=-69.8C 405.301 MHz Type=RS41-SGP Vaisala http://sondehub.org/S2340822 https://radiosondy.info/sonde.php?sondenumbe
PP5UF-6S23408222021-07-12 12:39:00-27.47-47.8956907216340Clb=-6.6m/s t=-69.3C 405.301 MHz Type=RS41-SGP Vaisala http://sondehub.org/S2340822 https://radiosondy.info/sonde.php?sondenumbe
PP5UF-6S23408222021-07-12 12:38:40-27.4711-47.9008908516472Clb=-6.1m/s t=-69.1C 405.301 MHz Type=RS41-SGP Vaisala http://sondehub.org/S2340822 https://radiosondy.info/sonde.php?sondenumbe
PP5UF-6S23408222021-07-12 12:38:20-27.4726-47.9056839816605Clb=-6.0m/s t=-69.3C 405.301 MHz Type=RS41-SGP Vaisala http://sondehub.org/S2340822 https://radiosondy.info/sonde.php?sondenumbe
PP5UF-6S23408222021-07-12 12:38:00-27.4739-47.917310716737Clb=-6.6m/s t=-69.4C 405.301 MHz Type=RS41-SGP Vaisala http://sondehub.org/S2340822 https://radiosondy.info/sonde.php?sondenumbe
PP5UF-6S23408222021-07-12 12:37:40-27.4751-47.9141659816870Clb=-6.6m/s t=-70.4C 405.301 MHz Type=RS41-SGP Vaisala http://sondehub.org/S2340822 https://radiosondy.info/sonde.php?sondenumbe
PP5UF-6S23408222021-07-12 12:37:20-27.4757-47.9184637617005Clb=-6.2m/s t=-71.1C 405.301 MHz Type=RS41-SGP Vaisala http://sondehub.org/S2340822 https://radiosondy.info/sonde.php?sondenumbe
PP5UF-6S23408222021-07-12 12:37:00-27.4768-47.9231587817147Clb=-7.3m/s t=-70.4C 405.301 MHz Type=RS41-SGP Vaisala http://sondehub.org/S2340822 https://radiosondy.info/sonde.php?sondenumbe
PP5UF-6S23408222021-07-12 12:36:40-27.4778-47.9284756917292Clb=-6.0m/s t=-70.7C 405.301 MHz Type=RS41-SGP Vaisala http://sondehub.org/S2340822 https://radiosondy.info/sonde.php?sondenumbe
PP5UF-6S23408222021-07-12 12:36:20-27.4791-47.9339868117435Clb=-6.6m/s t=-71.3C 405.301 MHz Type=RS41-SGP Vaisala http://sondehub.org/S2340822 https://radiosondy.info/sonde.php?sondenumbe
PP5UF-6S23408222021-07-12 12:36:00-27.4808-47.93898210717588Clb=-7.4m/s t=-72.0C 405.301 MHz Type=RS41-SGP Vaisala http://sondehub.org/S2340822 https://radiosondy.info/sonde.php?sondenumbe
PP5UF-6S23408222021-07-12 12:35:40-27.4825-47.94316210917743Clb=-6.6m/s t=-68.0C 405.301 MHz Type=RS41-SGP Vaisala http://sondehub.org/S2340822 https://radiosondy.info/sonde.php?sondenumbe
PP5UF-6S23408222021-07-12 12:35:20-27.4839-47.9466517817900Clb=-6.5m/s t=-66.3C 405.301 MHz Type=RS41-SGP Vaisala http://sondehub.org/S2340822 https://radiosondy.info/sonde.php?sondenumbe
PP5UF-6S23408222021-07-12 12:35:00-27.4845-47.9501525618053Clb=-6.9m/s t=-66.9C 405.301 MHz Type=RS41-SGP Vaisala http://sondehub.org/S2340822 https://radiosondy.info/sonde.php?sondenumbe
PP5UF-6S23408222021-07-12 12:34:40-27.4855-47.954584318209Clb=-8.0m/s t=-67.3C 405.301 MHz Type=RS41-SGP Vaisala http://sondehub.org/S2340822 https://radiosondy.info/sonde.php?sondenumbe
PP5UF-6S23408222021-07-12 12:34:20-27.4865-47.9573713018371Clb=-7.3m/s t=-67.0C 405.301 MHz Type=RS41-SGP Vaisala http://sondehub.org/S2340822 https://radiosondy.info/sonde.php?sondenumbe
PP5UF-6S23408222021-07-12 12:34:00-27.4874-47.96031043718524Clb=-8.0m/s t=-66.6C 405.301 MHz Type=RS41-SGP Vaisala http://sondehub.org/S2340822 https://radiosondy.info/sonde.php?sondenumbe
PP5UF-6S23408222021-07-12 12:33:40-27.4882-47.9618994118676Clb=-8.3m/s t=-65.9C 405.301 MHz Type=RS41-SGP Vaisala http://sondehub.org/S2340822 https://radiosondy.info/sonde.php?sondenumbe
PP5UF-6S23408222021-07-12 12:33:20-27.4894-47.9651875018824Clb=-8.6m/s t=-65.7C 405.301 MHz Type=RS41-SGP Vaisala http://sondehub.org/S2340822 https://radiosondy.info/sonde.php?sondenumbe
PP5UF-6S23408222021-07-12 12:33:00-27.4911-47.9672756918982Clb=-8.6m/s t=-65.6C 405.301 MHz Type=RS41-SGP Vaisala http://sondehub.org/S2340822 https://radiosondy.info/sonde.php?sondenumbe
PP5UF-6S23408222021-07-12 12:32:40-27.4925-47.9691646519146Clb=-6.9m/s t=-65.7C 405.301 MHz Type=RS41-SGP Vaisala http://sondehub.org/S2340822 https://radiosondy.info/sonde.php?sondenumbe
PP5UF-6S23408222021-07-12 12:32:20-27.4931-47.9716354419311Clb=-9.3m/s t=-65.3C 405.301 MHz Type=RS41-SGP Vaisala http://sondehub.org/S2340822 https://radiosondy.info/sonde.php?sondenumbe
PP5UF-6S23408222021-07-12 12:32:00-27.4927-47.9735362219491Clb=-10.0m/s t=-65.4C 405.301 MHz Type=RS41-SGP Vaisala http://sondehub.org/S2340822 https://radiosondy.info/sonde.php?sondenumb
PP5UF-6S23408222021-07-12 12:31:40-27.4923-47.9761382019678Clb=-10.0m/s t=-63.3C 405.301 MHz Type=RS41-SGP Vaisala http://sondehub.org/S2340822 https://radiosondy.info/sonde.php?sondenumb
PP5UF-6S23408222021-07-12 12:31:20-27.4918-47.9776212019876Clb=-11.7m/s t=-64.5C 405.301 MHz Type=RS41-SGP Vaisala http://sondehub.org/S2340822 https://radiosondy.info/sonde.php?sondenumb
PP5UF-6S23408222021-07-12 12:31:00-27.4918-47.97922132220094Clb=-11.6m/s t=-62.9C 405.301 MHz Type=RS41-SGP Vaisala http://sondehub.org/S2340822 https://radiosondy.info/sonde.php?sondenumb
PP5UF-6S23408222021-07-12 12:30:40-27.4907-47.98041717020306Clb=-12.3m/s t=-64.3C 405.301 MHz Type=RS41-SGP Vaisala http://sondehub.org/S2340822 https://radiosondy.info/sonde.php?sondenumb
PP5UF-6S23408222021-07-12 12:30:20-27.4893-47.98181268020519Clb=-11.6m/s t=-64.5C 405.301 MHz Type=RS41-SGP Vaisala http://sondehub.org/S2340822 https://radiosondy.info/sonde.php?sondenumb
PP5UF-6S23408222021-07-12 12:30:00-27.4888-47.9843875220721Clb=-8.9m/s t=-64.2C 405.301 MHz Type=RS41-SGP Vaisala http://sondehub.org/S2340822 https://radiosondy.info/sonde.php?sondenumbe
PP5UF-6S23408222021-07-12 12:29:40-27.489-47.9872895920939Clb=-10.3m/s t=-63.3C 405.301 MHz Type=RS41-SGP Vaisala http://sondehub.org/S2340822 https://radiosondy.info/sonde.php?sondenumb
PP5UF-6S23408222021-07-12 12:29:20-27.4897-47.99985721147Clb=-9.0m/s t=-61.5C 405.301 MHz Type=RS41-SGP Vaisala http://sondehub.org/S2340822 https://radiosondy.info/sonde.php?sondenumbe
PP5UF-6S23408222021-07-12 12:29:00-27.4895-47.9941064321332Clb=-8.7m/s t=-60.7C 405.301 MHz Type=RS41-SGP Vaisala http://sondehub.org/S2340822 https://radiosondy.info/sonde.php?sondenumbe
PP5UF-6S23408222021-07-12 12:28:40-27.4895-47.99661307821542Clb=-11.6m/s t=-59.1C 405.301 MHz Type=RS41-SGP Vaisala http://sondehub.org/S2340822 https://radiosondy.info/sonde.php?sondenumb
PP5UF-6S23408222021-07-12 12:28:20-27.4888-48.00011225021763Clb=-10.4m/s t=-58.7C 405.301 MHz Type=RS41-SGP Vaisala http://sondehub.org/S2340822 https://radiosondy.info/sonde.php?sondenumb
PP5UF-6S23408222021-07-12 12:28:00-27.4885-48.00281017421972Clb=-11.0m/s t=-58.5C 405.301 MHz Type=RS41-SGP Vaisala http://sondehub.org/S2340822 https://radiosondy.info/sonde.php?sondenumb
PP5UF-6S23408222021-07-12 12:27:40-27.4882-48.0068885622220Clb=-14.7m/s t=-58.9C 405.301 MHz Type=RS41-SGP Vaisala http://sondehub.org/S2340822 https://radiosondy.info/sonde.php?sondenumb
PP5UF-6S23408222021-07-12 12:27:20-27.4874-48.01041116122474Clb=-16.3m/s t=-58.8C 405.301 MHz Type=RS41-SGP Vaisala http://sondehub.org/S2340822 https://radiosondy.info/sonde.php?sondenumb
PP5UF-6S23408222021-07-12 12:27:00-27.4864-48.01391116722580Clb=8.3m/s t=-59.3C 405.301 MHz Type=RS41-SGP Vaisala http://sondehub.org/S2340822 https://radiosondy.info/sonde.php?sondenumber
PP5UF-6S23408222021-07-12 12:26:40-27.4856-48.01721046522450Clb=6.8m/s t=-58.7C 405.301 MHz Type=RS41-SGP Vaisala http://sondehub.org/S2340822 https://radiosondy.info/sonde.php?sondenumber
PP5UF-6S23408222021-07-12 12:26:20-27.4851-48.0209996322315Clb=4.1m/s t=-58.7C 405.301 MHz Type=RS41-SGP Vaisala http://sondehub.org/S2340822 https://radiosondy.info/sonde.php?sondenumber
PP5UF-6S23408222021-07-12 12:26:00-27.4848-48.0249966322166Clb=3.7m/s t=-59.0C 405.301 MHz Type=RS41-SGP Vaisala http://sondehub.org/S2340822 https://radiosondy.info/sonde.php?sondenumber
PP5UF-6S23408222021-07-12 12:25:40-27.4847-48.028886522039Clb=5.3m/s t=-58.7C 405.301 MHz Type=RS41-SGP Vaisala http://sondehub.org/S2340822 https://radiosondy.info/sonde.php?sondenumber
PP5UF-6S23408222021-07-12 12:25:20-27.4848-48.0311835921896Clb=5.1m/s t=-58.8C 405.301 MHz Type=RS41-SGP Vaisala http://sondehub.org/S2340822 https://radiosondy.info/sonde.php?sondenumber
PP5UF-6S23408222021-07-12 12:25:00-27.4847-48.0344936321754Clb=6.9m/s t=-58.6C 405.301 MHz Type=RS41-SGP Vaisala http://sondehub.org/S2340822 https://radiosondy.info/sonde.php?sondenumber
PP5UF-6S23408222021-07-12 12:24:40-27.4843-48.038926521605Clb=4.6m/s t=-58.6C 405.301 MHz Type=RS41-SGP Vaisala http://sondehub.org/S2340822 https://radiosondy.info/sonde.php?sondenumber
PP5UF-6S23408222021-07-12 12:24:20-27.4841-48.041865221464Clb=6.6m/s t=-59.3C 405.301 MHz Type=RS41-SGP Vaisala http://sondehub.org/S2340822 https://radiosondy.info/sonde.php?sondenumber
PP5UF-6S23408222021-07-12 12:24:00-27.4844-48.0439855621327Clb=4.4m/s t=-60.3C 405.301 MHz Type=RS41-SGP Vaisala http://sondehub.org/S2340822 https://radiosondy.info/sonde.php?sondenumber
PP5UF-6S23408222021-07-12 12:23:40-27.4846-48.0469885021199Clb=5.1m/s t=-60.9C 405.301 MHz Type=RS41-SGP Vaisala http://sondehub.org/S2340822 https://radiosondy.info/sonde.php?sondenumber
PP5UF-6S23408222021-07-12 12:23:20-27.485-48.0499725621074Clb=6.3m/s t=-61.4C 405.301 MHz Type=RS41-SGP Vaisala http://sondehub.org/S2340822 https://radiosondy.info/sonde.php?sondenumber
PP5UF-6S23408222021-07-12 12:23:00-27.4857-48.0533836120954Clb=5.8m/s t=-63.2C 405.301 MHz Type=RS41-SGP Vaisala http://sondehub.org/S2340822 https://radiosondy.info/sonde.php?sondenumber
PP5UF-6S23408222021-07-12 12:22:40-27.4857-48.0564915020838Clb=5.9m/s t=-63.2C 405.301 MHz Type=RS41-SGP Vaisala http://sondehub.org/S2340822 https://radiosondy.info/sonde.php?sondenumber
PP5UF-6S23408222021-07-12 12:22:20-27.4854-48.05951015420708Clb=8.5m/s t=-64.0C 405.301 MHz Type=RS41-SGP Vaisala http://sondehub.org/S2340822 https://radiosondy.info/sonde.php?sondenumber
PP5UF-6S23408222021-07-12 12:22:00-27.4848-48.06151123020581Clb=10.5m/s t=-64.3C 405.301 MHz Type=RS41-SGP Vaisala http://sondehub.org/S2340822 https://radiosondy.info/sonde.php?sondenumbe
PP5UF-6S23408222021-07-12 12:21:40-27.4839-48.06311323720443Clb=3.8m/s t=-64.1C 405.301 MHz Type=RS41-SGP Vaisala http://sondehub.org/S2340822 https://radiosondy.info/sonde.php?sondenumber
PP5UF-6S23408222021-07-12 12:21:20-27.4826-48.06451373120308Clb=8.0m/s t=-64.2C 405.301 MHz Type=RS41-SGP Vaisala http://sondehub.org/S2340822 https://radiosondy.info/sonde.php?sondenumber
PP5UF-6S23408222021-07-12 12:21:00-27.4817-48.06591112620169Clb=10.4m/s t=-63.3C 405.301 MHz Type=RS41-SGP Vaisala http://sondehub.org/S2340822 https://radiosondy.info/sonde.php?sondenumbe
PP5UF-6S23408222021-07-12 12:20:40-27.4814-48.0679804120013Clb=7.9m/s t=-64.1C 405.301 MHz Type=RS41-SGP Vaisala http://sondehub.org/S2340822 https://radiosondy.info/sonde.php?sondenumber
PP5UF-6S23408222021-07-12 12:20:20-27.4815-48.0699974119879Clb=4.3m/s t=-64.6C 405.301 MHz Type=RS41-SGP Vaisala http://sondehub.org/S2340822 https://radiosondy.info/sonde.php?sondenumber
PP5UF-6S23408222021-07-12 12:20:00-27.481-48.07181353319737Clb=9.3m/s t=-64.3C 405.301 MHz Type=RS41-SGP Vaisala http://sondehub.org/S2340822 https://radiosondy.info/sonde.php?sondenumber
PP5UF-6S23408222021-07-12 12:19:40-27.4802-48.07331113119602Clb=6.0m/s t=-65.5C 405.301 MHz Type=RS41-SGP Vaisala http://sondehub.org/S2340822 https://radiosondy.info/sonde.php?sondenumber
PP5UF-6S23408222021-07-12 12:19:20-27.4796-48.07521023019470Clb=5.6m/s t=-65.4C 405.301 MHz Type=RS41-SGP Vaisala http://sondehub.org/S2340822 https://radiosondy.info/sonde.php?sondenumber
PP5UF-6S23408222021-07-12 12:19:00-27.4793-48.0767902419336Clb=7.7m/s t=-65.0C 405.301 MHz Type=RS41-SGP Vaisala http://sondehub.org/S2340822 https://radiosondy.info/sonde.php?sondenumber
PP5UF-6S23408222021-07-12 12:18:40-27.4797-48.0784663519206Clb=3.7m/s t=-65.2C 405.301 MHz Type=RS41-SGP Vaisala http://sondehub.org/S2340822 https://radiosondy.info/sonde.php?sondenumber
PP5UF-6S23408222021-07-12 12:18:20-27.4809-48.0803524819083Clb=3.4m/s t=-65.6C 405.301 MHz Type=RS41-SGP Vaisala http://sondehub.org/S2340822 https://radiosondy.info/sonde.php?sondenumber
PP5UF-6S23408222021-07-12 12:18:00-27.4824-48.0826485018956Clb=3.4m/s t=-65.2C 405.301 MHz Type=RS41-SGP Vaisala http://sondehub.org/S2340822 https://radiosondy.info/sonde.php?sondenumber
PP5UF-6S23408222021-07-12 12:17:40-27.484-48.0846485218833Clb=8.0m/s t=-65.1C 405.301 MHz Type=RS41-SGP Vaisala http://sondehub.org/S2340822 https://radiosondy.info/sonde.php?sondenumber
PP5UF-6S23408222021-07-12 12:17:20-27.4857-48.0867585218705Clb=8.1m/s t=-65.8C 405.301 MHz Type=RS41-SGP Vaisala http://sondehub.org/S2340822 https://radiosondy.info/sonde.php?sondenumber
PP5UF-6S23408222021-07-12 12:17:00-27.4871-48.0893625218566Clb=5.2m/s t=-65.2C 405.301 MHz Type=RS41-SGP Vaisala http://sondehub.org/S2340822 https://radiosondy.info/sonde.php?sondenumber
PP5UF-6S23408222021-07-12 12:16:40-27.488-48.0918735418439Clb=8.2m/s t=-65.8C 405.301 MHz Type=RS41-SGP Vaisala http://sondehub.org/S2340822 https://radiosondy.info/sonde.php?sondenumber
PP5UF-6S23408222021-07-12 12:16:20-27.489-48.0951665918297Clb=4.7m/s t=-66.3C 405.301 MHz Type=RS41-SGP Vaisala http://sondehub.org/S2340822 https://radiosondy.info/sonde.php?sondenumber
PP5UF-6S23408222021-07-12 12:16:00-27.4901-48.0983707618171Clb=2.8m/s t=-66.8C 405.301 MHz Type=RS41-SGP Vaisala http://sondehub.org/S2340822 https://radiosondy.info/sonde.php?sondenumber
PP5UF-6S23408222021-07-12 12:15:40-27.4911-48.1023786718034Clb=6.8m/s t=-66.8C 405.301 MHz Type=RS41-SGP Vaisala http://sondehub.org/S2340822 https://radiosondy.info/sonde.php?sondenumber
PP5UF-6S23408222021-07-12 12:15:20-27.4917-48.1059756517900Clb=6.6m/s t=-66.1C 405.301 MHz Type=RS41-SGP Vaisala http://sondehub.org/S2340822 https://radiosondy.info/sonde.php?sondenumber
PP5UF-6S23408222021-07-12 12:15:00-27.4931-48.1096658717761Clb=6.5m/s t=-67.6C 405.301 MHz Type=RS41-SGP Vaisala http://sondehub.org/S2340822 https://radiosondy.info/sonde.php?sondenumber
PP5UF-6S23408222021-07-12 12:14:40-27.4947-48.1144719417629Clb=7.5m/s t=-71.9C 405.301 MHz Type=RS41-SGP Vaisala http://sondehub.org/S2340822 https://radiosondy.info/sonde.php?sondenumber
PP5UF-6S23408222021-07-12 12:14:20-27.4963-48.1191678717492Clb=5.4m/s t=-71.5C 405.301 MHz Type=RS41-SGP Vaisala http://sondehub.org/S2340822 https://radiosondy.info/sonde.php?sondenumber
PP5UF-6S23408222021-07-12 12:14:00-27.4977-48.1243749417356Clb=5.7m/s t=-70.9C 405.301 MHz Type=RS41-SGP Vaisala http://sondehub.org/S2340822 https://radiosondy.info/sonde.php?sondenumber
PP5UF-6S23408222021-07-12 12:13:40-27.4987-48.1296799617241Clb=4.9m/s t=-70.3C 405.301 MHz Type=RS41-SGP Vaisala http://sondehub.org/S2340822 https://radiosondy.info/sonde.php?sondenumber
PP5UF-6S23408222021-07-12 12:13:20-27.4996-48.1347768517126Clb=5.2m/s t=-70.3C 405.301 MHz Type=RS41-SGP Vaisala http://sondehub.org/S2340822 https://radiosondy.info/sonde.php?sondenumber
PP5UF-6S23408222021-07-12 12:13:00-27.5006-48.1395817617004Clb=5.5m/s t=-71.1C 405.301 MHz Type=RS41-SGP Vaisala http://sondehub.org/S2340822 https://radiosondy.info/sonde.php?sondenumber
PP5UF-6S23408222021-07-12 12:12:40-27.5014-48.1436747616874Clb=7.3m/s t=-70.7C 405.301 MHz Type=RS41-SGP Vaisala http://sondehub.org/S2340822 https://radiosondy.info/sonde.php?sondenumber
PP5UF-6S23408222021-07-12 12:12:20-27.5026-48.1478718316745Clb=6.4m/s t=-70.2C 405.301 MHz Type=RS41-SGP Vaisala http://sondehub.org/S2340822 https://radiosondy.info/sonde.php?sondenumber
PP5UF-6S23408222021-07-12 12:12:00-27.5037-48.1526779116615Clb=8.3m/s t=-69.4C 405.301 MHz Type=RS41-SGP Vaisala http://sondehub.org/S2340822 https://radiosondy.info/sonde.php?sondenumber
PP5UF-6S23408222021-07-12 12:11:40-27.5046-48.1575799316484Clb=7.3m/s t=-68.9C 405.301 MHz Type=RS41-SGP Vaisala http://sondehub.org/S2340822 https://radiosondy.info/sonde.php?sondenumber
PP5UF-6S23408222021-07-12 12:11:20-27.5054-48.1626838916354Clb=5.7m/s t=-69.8C 405.301 MHz Type=RS41-SGP Vaisala http://sondehub.org/S2340822 https://radiosondy.info/sonde.php?sondenumber
PP5UF-6S23408222021-07-12 12:11:00-27.5061-48.1678799316228Clb=4.8m/s t=-70.6C 405.301 MHz Type=RS41-SGP Vaisala http://sondehub.org/S2340822 https://radiosondy.info/sonde.php?sondenumber
PP5UF-6S23408222021-07-12 12:10:40-27.5073-48.1729709316091Clb=7.0m/s t=-69.8C 405.301 MHz Type=RS41-SGP Vaisala http://sondehub.org/S2340822 https://radiosondy.info/sonde.php?sondenumber
PP5UF-6S23408222021-07-12 12:10:20-27.509-48.178659615976Clb=4.5m/s t=-69.4C 405.301 MHz Type=RS41-SGP Vaisala http://sondehub.org/S2340822 https://radiosondy.info/sonde.php?sondenumber
PP5UF-6S23408222021-07-12 12:10:00-27.5111-48.18296010415868Clb=4.7m/s t=-68.7C 405.301 MHz Type=RS41-SGP Vaisala http://sondehub.org/S2340822 https://radiosondy.info/sonde.php?sondenumber
PP5UF-6S23408222021-07-12 12:09:40-27.5138-48.18866512215745Clb=3.6m/s t=-68.9C 405.301 MHz Type=RS41-SGP Vaisala http://sondehub.org/S2340822 https://radiosondy.info/sonde.php?sondenumber
PP5UF-6S23408222021-07-12 12:09:20-27.5163-48.1956412615625Clb=7.1m/s t=-68.1C 405.301 MHz Type=RS41-SGP Vaisala http://sondehub.org/S2340822 https://radiosondy.info/sonde.php?sondenumber
PP5UF-6S23408222021-07-12 12:09:00-27.5188-48.20156612815502Clb=5.8m/s t=-67.2C 405.301 MHz Type=RS41-SGP Vaisala http://sondehub.org/S2340822 https://radiosondy.info/sonde.php?sondenumber
PP5UF-6S23408222021-07-12 12:08:40-27.5208-48.20857213015377Clb=5.8m/s t=-66.4C 405.301 MHz Type=RS41-SGP Vaisala http://sondehub.org/S2340822 https://radiosondy.info/sonde.php?sondenumber
PP5UF-6S23408222021-07-12 12:08:20-27.5228-48.21557112415258Clb=5.8m/s t=-65.4C 405.301 MHz Type=RS41-SGP Vaisala http://sondehub.org/S2340822 https://radiosondy.info/sonde.php?sondenumber
PP5UF-6S23408222021-07-12 12:08:00-27.5245-48.22247612215130Clb=6.8m/s t=-64.4C 405.301 MHz Type=RS41-SGP Vaisala http://sondehub.org/S2340822 https://radiosondy.info/sonde.php?sondenumber
PP5UF-6S23408222021-07-12 12:07:40-27.5258-48.22927612215007Clb=7.6m/s t=-63.3C 405.301 MHz Type=RS41-SGP Vaisala http://sondehub.org/S2340822 https://radiosondy.info/sonde.php?sondenumber
PP5UF-6S23408222021-07-12 12:07:20-27.5273-48.23637712214877Clb=6.7m/s t=-62.4C 405.301 MHz Type=RS41-SGP Vaisala http://sondehub.org/S2340822 https://radiosondy.info/sonde.php?sondenumber
PP5UF-6S23408222021-07-12 12:07:00-27.5285-48.24267611514766Clb=5.5m/s t=-62.2C 405.301 MHz Type=RS41-SGP Vaisala http://sondehub.org/S2340822 https://radiosondy.info/sonde.php?sondenumber
PP5UF-6S23408222021-07-12 12:06:40-27.5304-48.24936912414636Clb=6.3m/s t=-62.2C 405.301 MHz Type=RS41-SGP Vaisala http://sondehub.org/S2340822 https://radiosondy.info/sonde.php?sondenumber
PP5UF-6S23408222021-07-12 12:06:20-27.5327-48.25576513314521Clb=5.4m/s t=-61.6C 405.301 MHz Type=RS41-SGP Vaisala http://sondehub.org/S2340822 https://radiosondy.info/sonde.php?sondenumber
PP5UF-6S23408222021-07-12 12:06:00-27.535-48.26287113714407Clb=6.5m/s t=-61.3C 405.301 MHz Type=RS41-SGP Vaisala http://sondehub.org/S2340822 https://radiosondy.info/sonde.php?sondenumber
PP5UF-6S23408222021-07-12 12:05:40-27.5371-48.27017313714282Clb=5.8m/s t=-60.5C 405.301 MHz Type=RS41-SGP Vaisala http://sondehub.org/S2340822 https://radiosondy.info/sonde.php?sondenumber
PP5UF-6S23408222021-07-12 12:05:20-27.5389-48.27777513514164Clb=6.9m/s t=-60.0C 405.301 MHz Type=RS41-SGP Vaisala http://sondehub.org/S2340822 https://radiosondy.info/sonde.php?sondenumber
PP5UF-6S23408222021-07-12 12:05:00-27.5405-48.28497412614042Clb=5.3m/s t=-59.5C 405.301 MHz Type=RS41-SGP Vaisala http://sondehub.org/S2340822 https://radiosondy.info/sonde.php?sondenumber
PP5UF-6S23408222021-07-12 12:04:40-27.5422-48.2927311713918Clb=7.3m/s t=-58.9C 405.301 MHz Type=RS41-SGP Vaisala http://sondehub.org/S2340822 https://radiosondy.info/sonde.php?sondenumber
PP5UF-6S23408222021-07-12 12:04:20-27.5442-48.29826911513801Clb=6.7m/s t=-59.0C 405.301 MHz Type=RS41-SGP Vaisala http://sondehub.org/S2340822 https://radiosondy.info/sonde.php?sondenumber
PP5UF-6S23408222021-07-12 12:04:00-27.5466-48.30396411913693Clb=4.3m/s t=-59.4C 405.301 MHz Type=RS41-SGP Vaisala http://sondehub.org/S2340822 https://radiosondy.info/sonde.php?sondenumber
PP5UF-6S23408222021-07-12 12:03:40-27.5493-48.31026412813580Clb=6.6m/s t=-59.4C 405.301 MHz Type=RS41-SGP Vaisala http://sondehub.org/S2340822 https://radiosondy.info/sonde.php?sondenumber
PP5UF-6S23408222021-07-12 12:03:20-27.5517-48.31717012013462Clb=4.1m/s t=-58.8C 405.301 MHz Type=RS41-SGP Vaisala http://sondehub.org/S2340822 https://radiosondy.info/sonde.php?sondenumber
PP5UF-6S23408222021-07-12 12:03:00-27.554-48.32296412213350Clb=6.6m/s t=-58.6C 405.301 MHz Type=RS41-SGP Vaisala http://sondehub.org/S2340822 https://radiosondy.info/sonde.php?sondenumber
PP5UF-6S23408222021-07-12 12:02:40-27.5566-48.32896412213239Clb=7.7m/s t=-59.0C 405.301 MHz Type=RS41-SGP Vaisala http://sondehub.org/S2340822 https://radiosondy.info/sonde.php?sondenumber
PP5UF-6S23408222021-07-12 12:02:20-27.5594-48.33465511313114Clb=7.6m/s t=-59.3C 405.301 MHz Type=RS41-SGP Vaisala http://sondehub.org/S2340822 https://radiosondy.info/sonde.php?sondenumber
PP5UF-6S23408222021-07-12 12:02:00-27.5627-48.345612412997Clb=4.9m/s t=-58.7C 405.301 MHz Type=RS41-SGP Vaisala http://sondehub.org/S2340822 https://radiosondy.info/sonde.php?sondenumber
PP5UF-6S23408222021-07-12 12:01:40-27.566-48.34595712212872Clb=7.6m/s t=-59.0C 405.301 MHz Type=RS41-SGP Vaisala http://sondehub.org/S2340822 https://radiosondy.info/sonde.php?sondenumber
PP5UF-6S23408222021-07-12 12:01:20-27.5693-48.35145712812754Clb=7.0m/s t=-59.6C 405.301 MHz Type=RS41-SGP Vaisala http://sondehub.org/S2340822 https://radiosondy.info/sonde.php?sondenumber
PP5UF-6S23408222021-07-12 12:01:00-27.5722-48.35736111512628Clb=6.9m/s t=-60.0C 405.301 MHz Type=RS41-SGP Vaisala http://sondehub.org/S2340822 https://radiosondy.info/sonde.php?sondenumber
PP5UF-6S23408222021-07-12 12:00:40-27.5756-48.36335012412489Clb=10.3m/s t=-62.1C 405.301 MHz Type=RS41-SGP Vaisala http://sondehub.org/S2340822 https://radiosondy.info/sonde.php?sondenumbe
PP5UF-6S23408222021-07-12 12:00:20-27.5795-48.36895112412347Clb=6.0m/s t=-61.9C 405.301 MHz Type=RS41-SGP Vaisala http://sondehub.org/S2340822 https://radiosondy.info/sonde.php?sondenumber
PP5UF-6S23408222021-07-12 12:00:00-27.5835-48.37455311912205Clb=6.9m/s t=-61.3C 405.301 MHz Type=RS41-SGP Vaisala http://sondehub.org/S2340822 https://radiosondy.info/sonde.php?sondenumber
PP5UF-6S23408222021-07-12 11:59:40-27.5873-48.37994411912073Clb=5.6m/s t=-60.4C 405.301 MHz Type=RS41-SGP Vaisala http://sondehub.org/S2340822 https://radiosondy.info/sonde.php?sondenumber
PP5UF-6S23408222021-07-12 11:59:20-27.5911-48.38525412211931Clb=7.9m/s t=-59.4C 405.301 MHz Type=RS41-SGP Vaisala http://sondehub.org/S2340822 https://radiosondy.info/sonde.php?sondenumber
PP5UF-6S23408222021-07-12 11:59:00-27.5948-48.39085212411796Clb=8.8m/s t=-58.2C 405.301 MHz Type=RS41-SGP Vaisala http://sondehub.org/S2340822 https://radiosondy.info/sonde.php?sondenumber
PP5UF-6S23408222021-07-12 11:58:40-27.5987-48.39645211511647Clb=8.4m/s t=-56.8C 405.301 MHz Type=RS41-SGP Vaisala http://sondehub.org/S2340822 https://radiosondy.info/sonde.php?sondenumber
PP5UF-6S23408222021-07-12 11:58:20-27.6026-48.40154411511493Clb=5.7m/s t=-55.6C 405.301 MHz Type=RS41-SGP Vaisala http://sondehub.org/S2340822 https://radiosondy.info/sonde.php?sondenumber
PP5UF-6S23408222021-07-12 11:58:00-27.6063-48.40625310611360Clb=9.5m/s t=-55.0C 405.301 MHz Type=RS41-SGP Vaisala http://sondehub.org/S2340822 https://radiosondy.info/sonde.php?sondenumber
PP5UF-6S23408222021-07-12 11:57:40-27.6095-48.41075310011242Clb=5.1m/s t=-54.2C 405.301 MHz Type=RS41-SGP Vaisala http://sondehub.org/S2340822 https://radiosondy.info/sonde.php?sondenumber
PP5UF-6S23408222021-07-12 11:57:20-27.6126-48.4151519111101Clb=6.1m/s t=-53.7C 405.301 MHz Type=RS41-SGP Vaisala http://sondehub.org/S2340822 https://radiosondy.info/sonde.php?sondenumber
PP5UF-6S23408222021-07-12 11:57:00-27.6156-48.4195549810971Clb=5.2m/s t=-52.6C 405.301 MHz Type=RS41-SGP Vaisala http://sondehub.org/S2340822 https://radiosondy.info/sonde.php?sondenumber
PP5UF-6S23408222021-07-12 11:56:40-27.6185-48.4238529310816Clb=7.6m/s t=-51.3C 405.301 MHz Type=RS41-SGP Vaisala http://sondehub.org/S2340822 https://radiosondy.info/sonde.php?sondenumber
PP5UF-6S23408222021-07-12 11:56:20-27.6216-48.4284569610641Clb=8.1m/s t=-49.7C 405.301 MHz Type=RS41-SGP Vaisala http://sondehub.org/S2340822 https://radiosondy.info/sonde.php?sondenumber
PP5UF-6S23408222021-07-12 11:56:00-27.6243-48.4326498510488Clb=9.3m/s t=-48.4C 405.301 MHz Type=RS41-SGP Vaisala http://sondehub.org/S2340822 https://radiosondy.info/sonde.php?sondenumber
PP5UF-6S23408222021-07-12 11:55:40-27.6272-48.4367458510323Clb=9.0m/s t=-47.0C 405.301 MHz Type=RS41-SGP Vaisala http://sondehub.org/S2340822 https://radiosondy.info/sonde.php?sondenumber
PP5UF-6S23408222021-07-12 11:55:20-27.6302-48.4404468010151Clb=8.4m/s t=-45.7C 405.301 MHz Type=RS41-SGP Vaisala http://sondehub.org/S2340822 https://radiosondy.info/sonde.php?sondenumber
PP5UF-6S23408222021-07-12 11:55:00-27.6334-48.444349859970Clb=8.8m/s t=-44.2C 405.301 MHz Type=RS41-SGP Vaisala http://sondehub.org/S2340822 https://radiosondy.info/sonde.php?sondenumber
PP5UF-6S23408222021-07-12 11:54:40-27.636-48.447750789824Clb=8.7m/s t=-42.8C 405.301 MHz Type=RS41-SGP Vaisala http://sondehub.org/S2340822 https://radiosondy.info/sonde.php?sondenumber
PP5UF-6S23408222021-07-12 11:54:20-27.6381-48.450857839685Clb=8.6m/s t=-41.7C 405.301 MHz Type=RS41-SGP Vaisala http://sondehub.org/S2340822 https://radiosondy.info/sonde.php?sondenumber
PP5UF-6S23408222021-07-12 11:54:00-27.6404-48.454654839527Clb=9.2m/s t=-40.5C 405.301 MHz Type=RS41-SGP Vaisala http://sondehub.org/S2340822 https://radiosondy.info/sonde.php?sondenumber
PP5UF-6S23408222021-07-12 11:53:40-27.6439-48.459752749301Clb=7.4m/s t=-38.8C 405.301 MHz Type=RS41-SGP Vaisala http://sondehub.org/S2340822 https://radiosondy.info/sonde.php?sondenumber
PP5UF-6S23408222021-07-12 11:53:20-27.6454-48.461641749210Clb=8.2m/s t=-38.1C 405.301 MHz Type=RS41-SGP Vaisala http://sondehub.org/S2340822 https://radiosondy.info/sonde.php?sondenumber
PP5UF-6S23408222021-07-12 11:53:00-27.6475-48.464339659068Clb=6.3m/s t=-36.9C 405.301 MHz Type=RS41-SGP Vaisala http://sondehub.org/S2340822 https://radiosondy.info/sonde.php?sondenumber
PP5UF-6S23408222021-07-12 11:52:40-27.6501-48.467746858909Clb=7.0m/s t=-35.3C 405.301 MHz Type=RS41-SGP Vaisala http://sondehub.org/S2340822 https://radiosondy.info/sonde.php?sondenumber
PP5UF-6S23408222021-07-12 11:52:20-27.6523-48.470648728776Clb=7.9m/s t=-34.1C 405.301 MHz Type=RS41-SGP Vaisala http://sondehub.org/S2340822 https://radiosondy.info/sonde.php?sondenumber
PP5UF-6S23408222021-07-12 11:52:00-27.6547-48.473751678627Clb=8.0m/s t=-32.9C 405.301 MHz Type=RS41-SGP Vaisala http://sondehub.org/S2340822 https://radiosondy.info/sonde.php?sondenumber
PP5UF-6S23408222021-07-12 11:51:40-27.6571-48.476744638468Clb=7.2m/s t=-31.7C 405.301 MHz Type=RS41-SGP Vaisala http://sondehub.org/S2340822 https://radiosondy.info/sonde.php?sondenumber
PP5UF-6S23408222021-07-12 11:51:20-27.6593-48.479846708313Clb=8.4m/s t=-30.5C 405.301 MHz Type=RS41-SGP Vaisala http://sondehub.org/S2340822 https://radiosondy.info/sonde.php?sondenumber
PP5UF-6S23408222021-07-12 11:51:00-27.661-48.482546638175Clb=7.3m/s t=-29.2C 405.301 MHz Type=RS41-SGP Vaisala http://sondehub.org/S2340822 https://radiosondy.info/sonde.php?sondenumber
PP5UF-6S23408222021-07-12 11:50:40-27.6631-48.485761598024Clb=7.6m/s t=-27.8C 405.301 MHz Type=RS41-SGP Vaisala http://sondehub.org/S2340822 https://radiosondy.info/sonde.php?sondenumber
PP5UF-6S23408222021-07-12 11:50:20-27.6648-48.488748787891Clb=5.6m/s t=-26.7C 405.301 MHz Type=RS41-SGP Vaisala http://sondehub.org/S2340822 https://radiosondy.info/sonde.php?sondenumber
PP5UF-6S23408222021-07-12 11:50:00-27.6671-48.492166677756Clb=6.4m/s t=-25.7C 405.301 MHz Type=RS41-SGP Vaisala http://sondehub.org/S2340822 https://radiosondy.info/sonde.php?sondenumber
PP5UF-6S23408222021-07-12 11:49:40-27.6692-48.495352767603Clb=7.3m/s t=-24.3C 405.301 MHz Type=RS41-SGP Vaisala http://sondehub.org/S2340822 https://radiosondy.info/sonde.php?sondenumber
PP5UF-6S23408222021-07-12 11:49:20-27.6713-48.498746707459Clb=7.7m/s t=-22.9C 405.301 MHz Type=RS41-SGP Vaisala http://sondehub.org/S2340822 https://radiosondy.info/sonde.php?sondenumber
PP5UF-6S23408222021-07-12 11:49:00-27.6732-48.501847567329Clb=7.0m/s t=-21.7C 405.301 MHz Type=RS41-SGP Vaisala http://sondehub.org/S2340822 https://radiosondy.info/sonde.php?sondenumber
PP5UF-6S23408222021-07-12 11:48:40-27.6754-48.504548657190Clb=7.0m/s t=-20.4C 405.301 MHz Type=RS41-SGP Vaisala http://sondehub.org/S2340822 https://radiosondy.info/sonde.php?sondenumber
PP5UF-6S23408222021-07-12 11:48:20-27.677-48.507157697047Clb=5.9m/s t=-19.2C 405.301 MHz Type=RS41-SGP Vaisala http://sondehub.org/S2340822 https://radiosondy.info/sonde.php?sondenumber
PP5UF-6S23408222021-07-12 11:48:00-27.679-48.509850396902Clb=7.1m/s t=-18.0C 405.301 MHz Type=RS41-SGP Vaisala http://sondehub.org/S2340822 https://radiosondy.info/sonde.php?sondenumber
PP5UF-6S23408222021-07-12 11:47:40-27.6804-48.51260526762Clb=7.2m/s t=-16.8C 405.301 MHz Type=RS41-SGP Vaisala http://sondehub.org/S2340822 https://radiosondy.info/sonde.php?sondenumber
PP5UF-6S23408222021-07-12 11:47:20-27.6817-48.51454376616Clb=7.3m/s t=-15.4C 405.301 MHz Type=RS41-SGP Vaisala http://sondehub.org/S2340822 https://radiosondy.info/sonde.php?sondenumber
PP5UF-6S23408222021-07-12 11:47:00-27.683-48.516358446460Clb=7.8m/s t=-13.9C 405.301 MHz Type=RS41-SGP Vaisala http://sondehub.org/S2340822 https://radiosondy.info/sonde.php?sondenumber
PP5UF-6S23408222021-07-12 11:46:40-27.6839-48.51844356326Clb=9.5m/s t=-12.7C 405.301 MHz Type=RS41-SGP Vaisala http://sondehub.org/S2340822 https://radiosondy.info/sonde.php?sondenumber
PP5UF-6S23408222021-07-12 11:46:20-27.6851-48.5267416190Clb=8.7m/s t=-11.5C 405.301 MHz Type=RS41-SGP Vaisala http://sondehub.org/S2340822 https://radiosondy.info/sonde.php?sondenumber
PP5UF-6S23408222021-07-12 11:46:00-27.6858-48.521962436052Clb=5.6m/s t=-10.3C 405.301 MHz Type=RS41-SGP Vaisala http://sondehub.org/S2340822 https://radiosondy.info/sonde.php?sondenumber
PP5UF-6S23408222021-07-12 11:45:40-27.6864-48.523663335918Clb=7.8m/s t=-9.3C 405.301 MHz Type=RS41-SGP Vaisala http://sondehub.org/S2340822 https://radiosondy.info/sonde.php?sondenumber=
PP5UF-6S23408222021-07-12 11:45:20-27.687-48.525172355786Clb=7.5m/s t=-8.1C 405.301 MHz Type=RS41-SGP Vaisala http://sondehub.org/S2340822 https://radiosondy.info/sonde.php?sondenumber=
PP5UF-6S23408222021-07-12 11:45:00-27.6877-48.526671245649Clb=9.5m/s t=-7.0C 405.301 MHz Type=RS41-SGP Vaisala http://sondehub.org/S2340822 https://radiosondy.info/sonde.php?sondenumber=
PP5UF-6S23408222021-07-12 11:44:40-27.6885-48.528557505511Clb=5.2m/s t=-6.2C 405.301 MHz Type=RS41-SGP Vaisala http://sondehub.org/S2340822 https://radiosondy.info/sonde.php?sondenumber=
PP5UF-6S23408222021-07-12 11:44:20-27.689-48.530578415371Clb=8.7m/s t=-5.4C 405.301 MHz Type=RS41-SGP Vaisala http://sondehub.org/S2340822 https://radiosondy.info/sonde.php?sondenumber=
PP5UF-6S23408222021-07-12 11:44:00-27.6894-48.532266265233Clb=8.1m/s t=-4.8C 405.301 MHz Type=RS41-SGP Vaisala http://sondehub.org/S2340822 https://radiosondy.info/sonde.php?sondenumber=
PP5UF-6S23408222021-07-12 11:43:40-27.69-48.533774305086Clb=6.9m/s t=-3.6C 405.301 MHz Type=RS41-SGP Vaisala http://sondehub.org/S2340822 https://radiosondy.info/sonde.php?sondenumber=
PP5UF-6S23408222021-07-12 11:43:20-27.6906-48.535271204947Clb=6.0m/s t=-3.0C 405.301 MHz Type=RS41-SGP Vaisala http://sondehub.org/S2340822 https://radiosondy.info/sonde.php?sondenumber=
PP5UF-6S23408222021-07-12 11:43:00-27.6912-48.536252194809Clb=6.7m/s t=-2.2C 405.301 MHz Type=RS41-SGP Vaisala http://sondehub.org/S2340822 https://radiosondy.info/sonde.php?sondenumber=
PP5UF-6S23408222021-07-12 11:42:40-27.6918-48.537332264672Clb=6.9m/s t=-1.3C 405.301 MHz Type=RS41-SGP Vaisala http://sondehub.org/S2340822 https://radiosondy.info/sonde.php?sondenumber=
PP5UF-6S23408222021-07-12 11:42:20-27.6924-48.538383264541Clb=6.7m/s t=-0.6C 405.301 MHz Type=RS41-SGP Vaisala http://sondehub.org/S2340822 https://radiosondy.info/sonde.php?sondenumber=
PP5UF-6S23408222021-07-12 11:42:00-27.693-48.539450204415Clb=7.8m/s t=0.4C 405.301 MHz Type=RS41-SGP Vaisala http://sondehub.org/S2340822 https://radiosondy.info/sonde.php?sondenumber=S
PP5UF-6S23408222021-07-12 11:41:40-27.6938-48.540850284290Clb=5.2m/s t=1.3C 405.301 MHz Type=RS41-SGP Vaisala http://sondehub.org/S2340822 https://radiosondy.info/sonde.php?sondenumber=S
PP5UF-6S23408222021-07-12 11:41:20-27.6945-48.541758174158Clb=6.8m/s t=2.1C 405.301 MHz Type=RS41-SGP Vaisala http://sondehub.org/S2340822 https://radiosondy.info/sonde.php?sondenumber=S
PP5UF-6S23408222021-07-12 11:41:00-27.695-48.542420114013Clb=8.1m/s t=3.3C 405.301 MHz Type=RS41-SGP Vaisala http://sondehub.org/S2340822 https://radiosondy.info/sonde.php?sondenumber=S
PP5UF-6S23408222021-07-12 11:40:40-27.6952-48.54321073887Clb=6.5m/s t=3.0C 405.301 MHz Type=RS41-SGP Vaisala http://sondehub.org/S2340822 https://radiosondy.info/sonde.php?sondenumber=S
PP5UF-6S23408222021-07-12 11:40:20-27.6957-48.543524133757Clb=9.4m/s t=3.7C 405.301 MHz Type=RS41-SGP Vaisala http://sondehub.org/S2340822 https://radiosondy.info/sonde.php?sondenumber=S
PP5UF-6S23408222021-07-12 11:40:00-27.6962-48.543831113618Clb=6.1m/s t=4.7C 405.301 MHz Type=RS41-SGP Vaisala http://sondehub.org/S2340822 https://radiosondy.info/sonde.php?sondenumber=S
PP5UF-6S23408222021-07-12 11:39:40-27.6968-48.54383153489Clb=8.0m/s t=5.4C 405.301 MHz Type=RS41-SGP Vaisala http://sondehub.org/S2340822 https://radiosondy.info/sonde.php?sondenumber=S
PP5UF-6S23408222021-07-12 11:39:20-27.6974-48.543228893359Clb=6.5m/s t=6.1C 405.301 MHz Type=RS41-SGP Vaisala http://sondehub.org/S2340822 https://radiosondy.info/sonde.php?sondenumber=S
PP5UF-6S23408222021-07-12 11:39:00-27.6974-48.542822473233Clb=6.4m/s t=6.9C 405.301 MHz Type=RS41-SGP Vaisala http://sondehub.org/S2340822 https://radiosondy.info/sonde.php?sondenumber=S
PP5UF-6S23408222021-07-12 11:38:40-27.6973-48.542422193105Clb=4.8m/s t=7.3C 405.301 MHz Type=RS41-SGP Vaisala http://sondehub.org/S2340822 https://radiosondy.info/sonde.php?sondenumber=S
PP5UF-6S23408222021-07-12 11:38:20-27.6972-48.5414284132971Clb=4.7m/s t=8.3C 405.301 MHz Type=RS41-SGP Vaisala http://sondehub.org/S2340822 https://radiosondy.info/sonde.php?sondenumber=S
PP5UF-6S23408222021-07-12 11:38:00-27.6969-48.5404265152831Clb=6.5m/s t=9.1C 405.301 MHz Type=RS41-SGP Vaisala http://sondehub.org/S2340822 https://radiosondy.info/sonde.php?sondenumber=S
PP5UF-6S23408222021-07-12 11:37:40-27.6969-48.5391254302698Clb=6.2m/s t=8.7C 405.301 MHz Type=RS41-SGP Vaisala http://sondehub.org/S2340822 https://radiosondy.info/sonde.php?sondenumber=S
PP5UF-6S23408222021-07-12 11:37:20-27.6964-48.5382257172571Clb=3.5m/s t=9.6C 405.301 MHz Type=RS41-SGP Vaisala http://sondehub.org/S2340822 https://radiosondy.info/sonde.php?sondenumber=S
PP5UF-6S23408222021-07-12 11:37:00-27.6957-48.5373214172437Clb=6.5m/s t=8.3C 405.301 MHz Type=RS41-SGP Vaisala http://sondehub.org/S2340822 https://radiosondy.info/sonde.php?sondenumber=S
PP5UF-6S23408222021-07-12 11:36:40-27.6948-48.5374146242309Clb=5.2m/s t=5.4C 405.301 MHz Type=RS41-SGP Vaisala http://sondehub.org/S2340822 https://radiosondy.info/sonde.php?sondenumber=S
PP5UF-6S23408222021-07-12 11:36:20-27.6931-48.5383155372176Clb=8.2m/s t=6.5C 405.301 MHz Type=RS41-SGP Vaisala http://sondehub.org/S2340822 https://radiosondy.info/sonde.php?sondenumber=S
PP5UF-6S23408222021-07-12 11:36:00-27.6913-48.5393148412032Clb=6.1m/s t=7.9C 405.301 MHz Type=RS41-SGP Vaisala http://sondehub.org/S2340822 https://radiosondy.info/sonde.php?sondenumber=S
PP5UF-6S23408222021-07-12 11:35:40-27.6893-48.5403150411900Clb=6.2m/s t=9.2C 405.302 MHz Type=RS41-SGP Vaisala http://sondehub.org/S2340822 https://radiosondy.info/sonde.php?sondenumber=S
PP5UF-6S23408222021-07-12 11:35:20-27.6878-48.5411144301768Clb=7.3m/s t=-273.0C 405.302 MHz Type=RS41-SGP Vaisala http://sondehub.org/S2340822 https://radiosondy.info/sonde.php?sondenumbe
PP5UF-6S23408222021-07-12 11:35:00-27.6863-48.5415161281632Clb=7.0m/s t=-273.0C 405.302 MHz Type=RS41 Vaisala http://sondehub.org/S2340822 https://radiosondy.info/sonde.php?sondenumber=S2